sensor_id;sensor_type;location;lat;lon;timestamp;temperature;humidity
9393;DHT22;4736;52.508;13.422;2024-01-06T00:01:10;1.00;82.10
9393;DHT22;4736;52.508;13.422;2024-01-06T00:05:03;1.00;82.10
9393;DHT22;4736;52.508;13.422;2024-01-06T00:08:54;0.90;82.20
9393;DHT22;4736;52.508;13.422;2024-01-06T00:12:45;0.90;82.20
9393;DHT22;4736;52.508;13.422;2024-01-06T00:16:36;0.90;82.40
9393;DHT22;4736;52.508;13.422;2024-01-06T00:20:29;0.90;82.40
9393;DHT22;4736;52.508;13.422;2024-01-06T00:24:19;0.90;82.30
9393;DHT22;4736;52.508;13.422;2024-01-06T00:28:10;0.90;82.30
9393;DHT22;4736;52.508;13.422;2024-01-06T00:32:01;0.90;82.20
9393;DHT22;4736;52.508;13.422;2024-01-06T00:35:54;0.80;81.90
9393;DHT22;4736;52.508;13.422;2024-01-06T09:37:48;0.00;81.40
9393;DHT22;4736;52.508;13.422;2024-01-06T09:40:53;-0.10;81.20
9393;DHT22;4736;52.508;13.422;2024-01-06T09:43:58;-0.10;81.20
9393;DHT22;4736;52.508;13.422;2024-01-06T09:47:01;-0.10;81.10
9393;DHT22;4736;52.508;13.422;2024-01-06T09:50:09;-0.10;81.00
9393;DHT22;4736;52.508;13.422;2024-01-06T09:53:14;-0.10;80.90
9393;DHT22;4736;52.508;13.422;2024-01-06T09:56:17;-0.10;80.90
9393;DHT22;4736;52.508;13.422;2024-01-06T09:59:20;-0.10;80.90
9393;DHT22;4736;52.508;13.422;2024-01-06T10:02:23;-0.20;81.00
9393;DHT22;4736;52.508;13.422;2024-01-06T10:05:27;-0.10;81.10
9393;DHT22;4736;52.508;13.422;2024-01-06T10:08:32;-0.10;81.20
9393;DHT22;4736;52.508;13.422;2024-01-06T10:11:36;-0.10;81.30
9393;DHT22;4736;52.508;13.422;2024-01-06T10:14:44;-0.10;81.10
9393;DHT22;4736;52.508;13.422;2024-01-06T10:17:47;-0.10;81.10
9393;DHT22;4736;52.508;13.422;2024-01-06T10:20:50;0.00;80.70
9393;DHT22;4736;52.508;13.422;2024-01-06T10:23:55;0.00;80.50
9393;DHT22;4736;52.508;13.422;2024-01-06T10:26:58;0.00;80.30
9393;DHT22;4736;52.508;13.422;2024-01-06T10:30:05;0.00;80.20
9393;DHT22;4736;52.508;13.422;2024-01-06T10:33:10;0.00;79.80
9393;DHT22;4736;52.508;13.422;2024-01-06T10:36:16;0.00;80.00
9393;DHT22;4736;52.508;13.422;2024-01-06T10:39:21;0.00;79.80
9393;DHT22;4736;52.508;13.422;2024-01-06T10:42:24;0.00;79.80
9393;DHT22;4736;52.508;13.422;2024-01-06T10:45:28;0.00;79.80
9393;DHT22;4736;52.508;13.422;2024-01-06T10:48:32;0.00;79.70
9393;DHT22;4736;52.508;13.422;2024-01-06T10:51:38;0.00;79.50
9393;DHT22;4736;52.508;13.422;2024-01-06T10:54:43;0.00;79.50
9393;DHT22;4736;52.508;13.422;2024-01-06T10:57:52;0.00;79.30
9393;DHT22;4736;52.508;13.422;2024-01-06T11:00:56;-0.10;79.20
9393;DHT22;4736;52.508;13.422;2024-01-06T11:04:00;-0.10;79.60
9393;DHT22;4736;52.508;13.422;2024-01-06T11:07:05;-0.10;79.20
9393;DHT22;4736;52.508;13.422;2024-01-06T11:10:14;-0.10;79.30
9393;DHT22;4736;52.508;13.422;2024-01-06T11:13:22;-0.10;79.30
9393;DHT22;4736;52.508;13.422;2024-01-06T11:16:37;0.00;79.10
9393;DHT22;4736;52.508;13.422;2024-01-06T11:19:44;0.00;79.30
9393;DHT22;4736;52.508;13.422;2024-01-06T11:22:49;0.00;78.90
9393;DHT22;4736;52.508;13.422;2024-01-06T11:25:54;0.00;78.80
9393;DHT22;4736;52.508;13.422;2024-01-06T11:28:57;0.00;78.90
9393;DHT22;4736;52.508;13.422;2024-01-06T11:32:27;0.00;78.90
9393;DHT22;4736;52.508;13.422;2024-01-06T11:35:34;0.00;78.90
9393;DHT22;4736;52.508;13.422;2024-01-06T11:38:41;0.00;78.80
9393;DHT22;4736;52.508;13.422;2024-01-06T11:41:51;0.00;78.50
9393;DHT22;4736;52.508;13.422;2024-01-06T11:45:01;0.00;78.50
9393;DHT22;4736;52.508;13.422;2024-01-06T11:48:06;0.00;78.40
9393;DHT22;4736;52.508;13.422;2024-01-06T11:51:10;0.00;78.50
9393;DHT22;4736;52.508;13.422;2024-01-06T11:54:14;0.00;78.50
9393;DHT22;4736;52.508;13.422;2024-01-06T11:57:19;0.00;78.00
9393;DHT22;4736;52.508;13.422;2024-01-06T12:00:22;0.00;78.30
9393;DHT22;4736;52.508;13.422;2024-01-06T12:03:26;0.00;77.90
9393;DHT22;4736;52.508;13.422;2024-01-06T12:06:30;0.00;78.40
9393;DHT22;4736;52.508;13.422;2024-01-06T12:09:33;0.00;78.00
9393;DHT22;4736;52.508;13.422;2024-01-06T12:12:39;0.00;78.20
9393;DHT22;4736;52.508;13.422;2024-01-06T12:15:42;0.00;77.60
9393;DHT22;4736;52.508;13.422;2024-01-06T12:18:45;0.00;77.40
9393;DHT22;4736;52.508;13.422;2024-01-06T12:21:49;0.00;77.70
9393;DHT22;4736;52.508;13.422;2024-01-06T12:24:52;0.00;78.00
9393;DHT22;4736;52.508;13.422;2024-01-06T12:27:58;0.00;77.70
9393;DHT22;4736;52.508;13.422;2024-01-06T12:31:04;0.00;77.60
9393;DHT22;4736;52.508;13.422;2024-01-06T12:34:07;0.00;77.70
9393;DHT22;4736;52.508;13.422;2024-01-06T12:37:13;0.00;77.20
9393;DHT22;4736;52.508;13.422;2024-01-06T12:40:17;0.00;77.20
9393;DHT22;4736;52.508;13.422;2024-01-06T12:43:23;0.00;77.20
9393;DHT22;4736;52.508;13.422;2024-01-06T12:46:26;0.00;77.10
9393;DHT22;4736;52.508;13.422;2024-01-06T12:49:30;0.00;77.50
9393;DHT22;4736;52.508;13.422;2024-01-06T12:52:34;-0.10;77.30
9393;DHT22;4736;52.508;13.422;2024-01-06T12:55:40;-0.10;77.50
9393;DHT22;4736;52.508;13.422;2024-01-06T12:58:44;-0.10;77.50
9393;DHT22;4736;52.508;13.422;2024-01-06T13:01:47;-0.10;77.60
9393;DHT22;4736;52.508;13.422;2024-01-06T13:04:51;-0.10;77.60
9393;DHT22;4736;52.508;13.422;2024-01-06T13:07:55;-0.10;77.50
9393;DHT22;4736;52.508;13.422;2024-01-06T13:10:59;-0.10;77.30
9393;DHT22;4736;52.508;13.422;2024-01-06T13:14:03;-0.10;77.50
9393;DHT22;4736;52.508;13.422;2024-01-06T13:17:07;-0.10;77.50
9393;DHT22;4736;52.508;13.422;2024-01-06T13:20:11;-0.10;77.60
9393;DHT22;4736;52.508;13.422;2024-01-06T13:23:17;-0.20;77.60
9393;DHT22;4736;52.508;13.422;2024-01-06T13:26:21;-0.20;77.60
9393;DHT22;4736;52.508;13.422;2024-01-06T13:29:27;-0.20;77.90
9393;DHT22;4736;52.508;13.422;2024-01-06T13:32:30;-0.10;77.70
9393;DHT22;4736;52.508;13.422;2024-01-06T13:35:34;-0.20;77.30
9393;DHT22;4736;52.508;13.422;2024-01-06T13:38:38;-0.20;77.40
9393;DHT22;4736;52.508;13.422;2024-01-06T13:41:41;-0.20;77.20
9393;DHT22;4736;52.508;13.422;2024-01-06T13:44:46;-0.20;77.10
9393;DHT22;4736;52.508;13.422;2024-01-06T13:47:50;-0.20;77.10
9393;DHT22;4736;52.508;13.422;2024-01-06T13:50:54;-0.30;77.10
9393;DHT22;4736;52.508;13.422;2024-01-06T13:53:58;-0.30;77.30
9393;DHT22;4736;52.508;13.422;2024-01-06T13:57:01;-0.30;77.20
9393;DHT22;4736;52.508;13.422;2024-01-06T14:00:07;-0.30;77.20
9393;DHT22;4736;52.508;13.422;2024-01-06T14:03:10;-0.30;77.30
9393;DHT22;4736;52.508;13.422;2024-01-06T14:06:14;-0.30;77.50
9393;DHT22;4736;52.508;13.422;2024-01-06T14:09:19;-0.20;77.50
9393;DHT22;4736;52.508;13.422;2024-01-06T14:12:23;-0.30;77.20
9393;DHT22;4736;52.508;13.422;2024-01-06T14:15:27;-0.30;77.30
9393;DHT22;4736;52.508;13.422;2024-01-06T14:18:32;-0.30;77.20
9393;DHT22;4736;52.508;13.422;2024-01-06T14:21:36;-0.40;77.00
9393;DHT22;4736;52.508;13.422;2024-01-06T14:24:40;-0.40;76.90
9393;DHT22;4736;52.508;13.422;2024-01-06T14:27:43;-0.40;77.20
9393;DHT22;4736;52.508;13.422;2024-01-06T14:30:48;-0.30;76.70
9393;DHT22;4736;52.508;13.422;2024-01-06T14:33:51;-0.30;76.70
9393;DHT22;4736;52.508;13.422;2024-01-06T14:36:58;-0.30;76.90
9393;DHT22;4736;52.508;13.422;2024-01-06T14:40:07;-0.30;76.50
9393;DHT22;4736;52.508;13.422;2024-01-06T14:43:10;-0.30;76.30
9393;DHT22;4736;52.508;13.422;2024-01-06T14:46:15;-0.40;76.50
9393;DHT22;4736;52.508;13.422;2024-01-06T14:49:18;-0.40;76.60
9393;DHT22;4736;52.508;13.422;2024-01-06T14:52:21;-0.40;76.70
9393;DHT22;4736;52.508;13.422;2024-01-06T14:55:24;-0.30;76.70
9393;DHT22;4736;52.508;13.422;2024-01-06T14:58:27;-0.30;76.70
9393;DHT22;4736;52.508;13.422;2024-01-06T15:01:32;-0.30;76.70
9393;DHT22;4736;52.508;13.422;2024-01-06T15:04:37;-0.30;76.00
9393;DHT22;4736;52.508;13.422;2024-01-06T15:07:40;-0.30;75.90
9393;DHT22;4736;52.508;13.422;2024-01-06T15:10:44;-0.30;75.90
9393;DHT22;4736;52.508;13.422;2024-01-06T15:13:47;-0.30;75.90
9393;DHT22;4736;52.508;13.422;2024-01-06T15:16:51;-0.30;75.60
9393;DHT22;4736;52.508;13.422;2024-01-06T15:19:55;-0.30;75.50
9393;DHT22;4736;52.508;13.422;2024-01-06T15:22:58;-0.30;75.50
9393;DHT22;4736;52.508;13.422;2024-01-06T15:26:01;-0.30;75.90
9393;DHT22;4736;52.508;13.422;2024-01-06T15:29:06;-0.30;75.90
9393;DHT22;4736;52.508;13.422;2024-01-06T15:32:10;-0.30;76.00
9393;DHT22;4736;52.508;13.422;2024-01-06T15:35:14;-0.30;75.70
9393;DHT22;4736;52.508;13.422;2024-01-06T15:38:17;-0.30;75.80
9393;DHT22;4736;52.508;13.422;2024-01-06T15:41:20;-0.20;75.70
9393;DHT22;4736;52.508;13.422;2024-01-06T15:44:23;-0.20;75.60
9393;DHT22;4736;52.508;13.422;2024-01-06T15:47:28;-0.20;75.50
9393;DHT22;4736;52.508;13.422;2024-01-06T15:50:31;-0.30;75.50
9393;DHT22;4736;52.508;13.422;2024-01-06T15:53:34;-0.20;75.70
9393;DHT22;4736;52.508;13.422;2024-01-06T15:56:37;-0.20;75.80
9393;DHT22;4736;52.508;13.422;2024-01-06T15:59:40;-0.30;75.80
9393;DHT22;4736;52.508;13.422;2024-01-06T16:02:47;-0.30;75.90
9393;DHT22;4736;52.508;13.422;2024-01-06T16:05:51;-0.30;75.90
9393;DHT22;4736;52.508;13.422;2024-01-06T16:08:54;-0.30;75.60
9393;DHT22;4736;52.508;13.422;2024-01-06T16:11:57;-0.30;75.60
9393;DHT22;4736;52.508;13.422;2024-01-06T16:15:00;-0.30;75.40
9393;DHT22;4736;52.508;13.422;2024-01-06T16:18:06;-0.30;75.00
9393;DHT22;4736;52.508;13.422;2024-01-06T16:21:09;-0.30;75.20
9393;DHT22;4736;52.508;13.422;2024-01-06T16:24:12;-0.30;74.70
9393;DHT22;4736;52.508;13.422;2024-01-06T16:27:16;-0.30;74.60
9393;DHT22;4736;52.508;13.422;2024-01-06T16:30:19;-0.30;74.30
9393;DHT22;4736;52.508;13.422;2024-01-06T16:33:24;-0.30;74.40
9393;DHT22;4736;52.508;13.422;2024-01-06T16:36:29;-0.30;74.50
9393;DHT22;4736;52.508;13.422;2024-01-06T16:39:32;-0.30;74.50
9393;DHT22;4736;52.508;13.422;2024-01-06T16:42:36;-0.30;74.30
9393;DHT22;4736;52.508;13.422;2024-01-06T16:45:39;-0.30;74.00
9393;DHT22;4736;52.508;13.422;2024-01-06T16:48:45;-0.30;74.00
9393;DHT22;4736;52.508;13.422;2024-01-06T16:51:48;-0.30;74.10
9393;DHT22;4736;52.508;13.422;2024-01-06T16:54:51;-0.40;73.80
9393;DHT22;4736;52.508;13.422;2024-01-06T16:57:55;-0.40;73.90
9393;DHT22;4736;52.508;13.422;2024-01-06T17:01:02;-0.40;73.60
9393;DHT22;4736;52.508;13.422;2024-01-06T17:04:10;-0.50;73.60
9393;DHT22;4736;52.508;13.422;2024-01-06T17:07:14;-0.40;73.60
9393;DHT22;4736;52.508;13.422;2024-01-06T17:10:18;-0.40;72.90
9393;DHT22;4736;52.508;13.422;2024-01-06T17:13:21;-0.40;72.20
9393;DHT22;4736;52.508;13.422;2024-01-06T17:16:24;-0.50;73.00
9393;DHT22;4736;52.508;13.422;2024-01-06T17:19:32;-0.50;73.00
9393;DHT22;4736;52.508;13.422;2024-01-06T17:22:36;-0.40;73.10
9393;DHT22;4736;52.508;13.422;2024-01-06T17:25:44;-0.40;72.80
9393;DHT22;4736;52.508;13.422;2024-01-06T17:28:48;-0.40;72.60
9393;DHT22;4736;52.508;13.422;2024-01-06T17:31:51;-0.40;72.60
9393;DHT22;4736;52.508;13.422;2024-01-06T17:34:58;-0.40;72.30
9393;DHT22;4736;52.508;13.422;2024-01-06T17:38:04;-0.50;71.70
9393;DHT22;4736;52.508;13.422;2024-01-06T17:41:08;-0.50;71.80
9393;DHT22;4736;52.508;13.422;2024-01-06T17:44:11;-0.50;71.90
9393;DHT22;4736;52.508;13.422;2024-01-06T17:47:14;-0.50;71.90
9393;DHT22;4736;52.508;13.422;2024-01-06T17:50:19;-0.50;71.90
9393;DHT22;4736;52.508;13.422;2024-01-06T17:53:22;-0.50;71.90
9393;DHT22;4736;52.508;13.422;2024-01-06T17:56:26;-0.50;72.20
9393;DHT22;4736;52.508;13.422;2024-01-06T17:59:30;-0.50;72.20
9393;DHT22;4736;52.508;13.422;2024-01-06T18:02:33;-0.50;72.50
9393;DHT22;4736;52.508;13.422;2024-01-06T18:05:42;-0.60;72.60
9393;DHT22;4736;52.508;13.422;2024-01-06T18:08:45;-0.60;72.80
9393;DHT22;4736;52.508;13.422;2024-01-06T18:11:50;-0.60;73.00
9393;DHT22;4736;52.508;13.422;2024-01-06T18:14:53;-0.60;72.70
9393;DHT22;4736;52.508;13.422;2024-01-06T18:17:56;-0.60;72.40
9393;DHT22;4736;52.508;13.422;2024-01-06T18:21:01;-0.60;72.70
9393;DHT22;4736;52.508;13.422;2024-01-06T18:24:04;-0.50;72.60
9393;DHT22;4736;52.508;13.422;2024-01-06T18:27:09;-0.50;72.20
9393;DHT22;4736;52.508;13.422;2024-01-06T18:30:12;-0.50;72.00
9393;DHT22;4736;52.508;13.422;2024-01-06T18:33:16;-0.60;72.20
9393;DHT22;4736;52.508;13.422;2024-01-06T18:36:20;-0.60;72.10
9393;DHT22;4736;52.508;13.422;2024-01-06T18:39:24;-0.60;72.40
9393;DHT22;4736;52.508;13.422;2024-01-06T18:42:27;-0.60;72.50
9393;DHT22;4736;52.508;13.422;2024-01-06T18:45:30;-0.60;72.50
9393;DHT22;4736;52.508;13.422;2024-01-06T18:48:33;-0.60;72.50
9393;DHT22;4736;52.508;13.422;2024-01-06T18:51:38;-0.60;72.30
9393;DHT22;4736;52.508;13.422;2024-01-06T18:54:41;-0.60;72.70
9393;DHT22;4736;52.508;13.422;2024-01-06T18:57:47;-0.60;72.60
9393;DHT22;4736;52.508;13.422;2024-01-06T19:00:51;-0.60;72.50
9393;DHT22;4736;52.508;13.422;2024-01-06T19:03:55;-0.70;72.30
9393;DHT22;4736;52.508;13.422;2024-01-06T19:06:59;-0.70;72.50
9393;DHT22;4736;52.508;13.422;2024-01-06T19:10:03;-0.70;72.50
9393;DHT22;4736;52.508;13.422;2024-01-06T19:13:06;-0.70;72.60
9393;DHT22;4736;52.508;13.422;2024-01-06T19:16:11;-0.70;72.90
9393;DHT22;4736;52.508;13.422;2024-01-06T19:19:15;-0.60;72.00
9393;DHT22;4736;52.508;13.422;2024-01-06T19:22:26;-0.70;72.10
9393;DHT22;4736;52.508;13.422;2024-01-06T19:25:29;-0.70;71.80
9393;DHT22;4736;52.508;13.422;2024-01-06T19:28:32;-0.70;71.50
9393;DHT22;4736;52.508;13.422;2024-01-06T19:31:36;-0.70;71.20
9393;DHT22;4736;52.508;13.422;2024-01-06T19:34:39;-0.70;71.50
9393;DHT22;4736;52.508;13.422;2024-01-06T19:37:45;-0.70;71.50
9393;DHT22;4736;52.508;13.422;2024-01-06T19:40:49;-0.70;71.50
9393;DHT22;4736;52.508;13.422;2024-01-06T19:43:52;-0.70;71.30
9393;DHT22;4736;52.508;13.422;2024-01-06T19:46:56;-0.70;71.60
9393;DHT22;4736;52.508;13.422;2024-01-06T19:50:02;-0.70;71.30
9393;DHT22;4736;52.508;13.422;2024-01-06T19:53:07;-0.70;70.80
9393;DHT22;4736;52.508;13.422;2024-01-06T19:56:15;-0.70;71.10
9393;DHT22;4736;52.508;13.422;2024-01-06T19:59:18;-0.70;70.90
9393;DHT22;4736;52.508;13.422;2024-01-06T20:02:21;-0.70;70.70
9393;DHT22;4736;52.508;13.422;2024-01-06T20:05:24;-0.70;70.70
9393;DHT22;4736;52.508;13.422;2024-01-06T20:08:29;-0.80;70.40
9393;DHT22;4736;52.508;13.422;2024-01-06T20:11:34;-0.80;70.30
9393;DHT22;4736;52.508;13.422;2024-01-06T20:14:37;-0.90;70.20
9393;DHT22;4736;52.508;13.422;2024-01-06T20:17:41;-0.80;70.20
9393;DHT22;4736;52.508;13.422;2024-01-06T20:20:44;-0.90;70.50
9393;DHT22;4736;52.508;13.422;2024-01-06T20:23:49;-0.90;70.00
9393;DHT22;4736;52.508;13.422;2024-01-06T20:26:52;-0.90;70.50
9393;DHT22;4736;52.508;13.422;2024-01-06T20:29:59;-0.90;70.70
9393;DHT22;4736;52.508;13.422;2024-01-06T20:33:02;-0.90;71.70
9393;DHT22;4736;52.508;13.422;2024-01-06T20:36:06;-0.90;72.20
9393;DHT22;4736;52.508;13.422;2024-01-06T20:39:13;-0.90;72.60
9393;DHT22;4736;52.508;13.422;2024-01-06T20:42:17;-1.00;73.00
9393;DHT22;4736;52.508;13.422;2024-01-06T20:45:23;-1.10;72.90
9393;DHT22;4736;52.508;13.422;2024-01-06T20:48:26;-1.10;73.50
9393;DHT22;4736;52.508;13.422;2024-01-06T20:51:29;-1.10;74.00
9393;DHT22;4736;52.508;13.422;2024-01-06T20:54:34;-1.10;74.20
9393;DHT22;4736;52.508;13.422;2024-01-06T20:57:39;-1.10;73.70
9393;DHT22;4736;52.508;13.422;2024-01-06T21:00:42;-1.20;73.80
9393;DHT22;4736;52.508;13.422;2024-01-06T21:03:47;-1.10;73.80
9393;DHT22;4736;52.508;13.422;2024-01-06T21:06:55;-1.20;73.90
9393;DHT22;4736;52.508;13.422;2024-01-06T21:10:00;-1.20;73.70
9393;DHT22;4736;52.508;13.422;2024-01-06T21:13:07;-1.20;73.10
9393;DHT22;4736;52.508;13.422;2024-01-06T21:16:10;-1.10;72.80
9393;DHT22;4736;52.508;13.422;2024-01-06T21:19:15;-1.10;72.50
9393;DHT22;4736;52.508;13.422;2024-01-06T21:22:18;-1.10;72.20
9393;DHT22;4736;52.508;13.422;2024-01-06T21:25:24;-1.10;71.30
9393;DHT22;4736;52.508;13.422;2024-01-06T21:28:27;-1.00;71.20
9393;DHT22;4736;52.508;13.422;2024-01-06T21:31:30;-1.00;70.50
9393;DHT22;4736;52.508;13.422;2024-01-06T21:34:33;-1.00;69.30
9393;DHT22;4736;52.508;13.422;2024-01-06T21:37:37;-1.10;69.10
9393;DHT22;4736;52.508;13.422;2024-01-06T21:40:42;-1.00;69.30
9393;DHT22;4736;52.508;13.422;2024-01-06T21:43:46;-1.00;68.70
9393;DHT22;4736;52.508;13.422;2024-01-06T21:46:50;-1.00;68.50
9393;DHT22;4736;52.508;13.422;2024-01-06T21:49:53;-1.00;68.40
9393;DHT22;4736;52.508;13.422;2024-01-06T21:52:57;-1.00;68.20
9393;DHT22;4736;52.508;13.422;2024-01-06T21:56:01;-1.00;68.00
9393;DHT22;4736;52.508;13.422;2024-01-06T21:59:05;-1.00;67.80
9393;DHT22;4736;52.508;13.422;2024-01-06T22:02:09;-1.00;68.00
9393;DHT22;4736;52.508;13.422;2024-01-06T22:05:12;-1.00;67.40
9393;DHT22;4736;52.508;13.422;2024-01-06T22:08:17;-1.00;67.40
9393;DHT22;4736;52.508;13.422;2024-01-06T22:11:21;-1.00;67.80
9393;DHT22;4736;52.508;13.422;2024-01-06T22:14:24;-1.00;67.90
9393;DHT22;4736;52.508;13.422;2024-01-06T22:17:28;-0.90;67.50
9393;DHT22;4736;52.508;13.422;2024-01-06T22:20:31;-0.90;67.60
9393;DHT22;4736;52.508;13.422;2024-01-06T22:23:34;-0.90;67.10
9393;DHT22;4736;52.508;13.422;2024-01-06T22:26:38;-1.00;66.60
9393;DHT22;4736;52.508;13.422;2024-01-06T22:29:42;-1.00;66.50
9393;DHT22;4736;52.508;13.422;2024-01-06T22:32:46;-0.90;66.50
9393;DHT22;4736;52.508;13.422;2024-01-06T22:35:51;-0.90;66.70
9393;DHT22;4736;52.508;13.422;2024-01-06T22:38:54;-1.00;66.70
9393;DHT22;4736;52.508;13.422;2024-01-06T22:41:59;-1.00;66.80
9393;DHT22;4736;52.508;13.422;2024-01-06T22:45:04;-1.00;66.70
9393;DHT22;4736;52.508;13.422;2024-01-06T22:48:08;-0.90;66.90
9393;DHT22;4736;52.508;13.422;2024-01-06T22:51:11;-0.90;66.80
9393;DHT22;4736;52.508;13.422;2024-01-06T22:54:14;-0.90;66.60
9393;DHT22;4736;52.508;13.422;2024-01-06T22:57:18;-0.90;66.40
9393;DHT22;4736;52.508;13.422;2024-01-06T23:00:22;-0.90;66.20
9393;DHT22;4736;52.508;13.422;2024-01-06T23:03:30;-0.90;66.20
9393;DHT22;4736;52.508;13.422;2024-01-06T23:06:33;-1.00;65.80
9393;DHT22;4736;52.508;13.422;2024-01-06T23:09:36;-1.00;65.80
9393;DHT22;4736;52.508;13.422;2024-01-06T23:12:41;-0.90;65.70
9393;DHT22;4736;52.508;13.422;2024-01-06T23:15:44;-1.00;66.10
9393;DHT22;4736;52.508;13.422;2024-01-06T23:18:49;-1.00;65.90
9393;DHT22;4736;52.508;13.422;2024-01-06T23:21:52;-1.00;66.10
9393;DHT22;4736;52.508;13.422;2024-01-06T23:24:55;-1.00;66.10
9393;DHT22;4736;52.508;13.422;2024-01-06T23:28:00;-1.00;66.10
9393;DHT22;4736;52.508;13.422;2024-01-06T23:31:03;-1.00;66.30
9393;DHT22;4736;52.508;13.422;2024-01-06T23:34:07;-1.00;66.00
9393;DHT22;4736;52.508;13.422;2024-01-06T23:37:30;-1.00;66.00
9393;DHT22;4736;52.508;13.422;2024-01-06T23:40:33;-1.00;66.10
9393;DHT22;4736;52.508;13.422;2024-01-06T23:43:39;-1.00;65.90
9393;DHT22;4736;52.508;13.422;2024-01-06T23:46:42;-1.00;66.20
9393;DHT22;4736;52.508;13.422;2024-01-06T23:49:45;-1.00;66.10
9393;DHT22;4736;52.508;13.422;2024-01-06T23:52:49;-1.10;66.50
9393;DHT22;4736;52.508;13.422;2024-01-06T23:55:52;-1.00;66.60
9393;DHT22;4736;52.508;13.422;2024-01-06T23:58:58;-1.00;66.30
